Time;durP1;ratioP1;P1;durP2;ratioP2;P2;SDS_P1;SDS_P2;PMS_P1;PMS_P2;Temp;Humidity;BMP_temperature;BMP_pressure;BME280_temperature;BME280_humidity;BME280_pressure;Samples;Min_cycle;Max_cycle;Signal;HPM_P1;HPM_P2
2023/01/31 00:02:21;;;;;;;;;;;;;;;2.57;81.67;99842.92;107462;1258;61819;-84
2023/01/31 00:04:48;;;;;;;;;;;;;;;2.56;81.70;99847.21;108360;1254;125043;-80
2023/01/31 00:07:14;;;;;;;;;;;;;;;2.55;81.74;99844.22;109025;1257;59144;-83
2023/01/31 00:09:40;;;;;;;;;;;;;;;2.54;81.82;99840.90;108681;1255;59778;-84
2023/01/31 00:12:06;;;;;;;;;;;;;;;2.54;81.84;99844.68;107356;1257;124306;-81
2023/01/31 00:14:37;;;;;;;;;;;;;;;2.51;81.71;99846.82;107380;1256;61394;-80
2023/01/31 00:17:03;;;;;;;;;;;;;;;2.49;81.74;99849.34;107634;1258;124357;-83
2023/01/31 00:19:29;;;;;;;;;;;;;;;2.48;81.85;99850.14;107832;1257;61142;-81
2023/01/31 00:21:56;;;;;;;;;;;;;;;2.47;81.76;99855.48;107539;1254;62048;-81
2023/01/31 00:24:23;;;;;;;;;;;;;;;2.45;81.98;99857.65;107835;1257;124419;-81
2023/01/31 00:26:55;;;;;;;;;;;;;;;2.44;81.77;99856.56;108409;1254;59311;-81
2023/01/31 00:29:22;;;;;;;;;;;;;;;2.42;81.82;99861.83;108954;1253;124216;-81
2023/01/31 00:31:49;;;;;;;;;;;;;;;2.40;81.84;99863.13;108331;1256;74656;-83
2023/01/31 00:34:15;;;;;;;;;;;;;;;2.41;81.94;99868.58;107327;1256;124688;-84
2023/01/31 00:36:41;;;;;;;;;;;;;;;2.42;81.95;99870.84;107381;1255;61380;-80
2023/01/31 00:39:08;;;;;;;;;;;;;;;2.40;81.86;99872.66;107348;1257;59562;-84
2023/01/31 00:41:35;;;;;;;;;;;;;;;2.40;82.01;99874.38;107344;1260;124468;-82
2023/01/31 00:44:01;;;;;;;;;;;;;;;2.42;81.90;99879.13;107602;1256;72710;-85
2023/01/31 00:46:28;;;;;;;;;;;;;;;2.43;82.07;99884.25;107625;1254;124430;-84
2023/01/31 00:48:55;;;;;;;;;;;;;;;2.44;81.95;99881.86;107755;1257;61443;-83
2023/01/31 00:51:21;;;;;;;;;;;;;;;2.42;81.85;99887.31;107274;1259;61187;-84
2023/01/31 00:53:49;;;;;;;;;;;;;;;2.42;81.86;99894.90;107407;1257;124486;-84
2023/01/31 00:56:19;;;;;;;;;;;;;;;2.39;81.70;99894.77;107386;1256;75108;-85
2023/01/31 00:58:45;;;;;;;;;;;;;;;2.37;81.76;99898.16;107569;1256;125056;-84
2023/01/31 01:01:11;;;;;;;;;;;;;;;2.35;81.81;99903.11;107688;1254;60276;-84
2023/01/31 01:03:38;;;;;;;;;;;;;;;2.33;81.76;99902.52;107803;1254;61265;-81
2023/01/31 01:06:04;;;;;;;;;;;;;;;2.32;81.84;99904.73;107650;1255;124354;-83
2023/01/31 01:08:31;;;;;;;;;;;;;;;2.33;82.02;99910.29;107454;1254;62269;-82
2023/01/31 01:11:03;;;;;;;;;;;;;;;2.34;82.01;99912.05;107647;1259;124815;-82
2023/01/31 01:13:29;;;;;;;;;;;;;;;2.33;82.02;99914.79;107800;1258;72761;-80
2023/01/31 01:15:55;;;;;;;;;;;;;;;2.33;82.05;99917.71;107717;1257;61431;-83
2023/01/31 01:18:22;;;;;;;;;;;;;;;2.35;82.01;99920.58;107566;1260;124935;-83
2023/01/31 01:20:48;;;;;;;;;;;;;;;2.37;81.86;99923.24;107734;1256;59920;-84
2023/01/31 01:23:14;;;;;;;;;;;;;;;2.40;82.16;99928.59;107598;1254;124777;-84
2023/01/31 01:25:43;;;;;;;;;;;;;;;2.42;81.87;99932.67;107322;1254;61296;-84
2023/01/31 01:28:10;;;;;;;;;;;;;;;2.40;81.86;99937.95;107340;1254;124822;-83
2023/01/31 01:30:37;;;;;;;;;;;;;;;2.40;81.94;99942.61;107496;1259;59504;-84
2023/01/31 01:33:04;;;;;;;;;;;;;;;2.39;81.88;99951.39;107751;1255;74746;-84
2023/01/31 01:35:30;;;;;;;;;;;;;;;2.38;82.03;99956.20;107951;1259;124783;-84
2023/01/31 01:37:57;;;;;;;;;;;;;;;2.38;81.92;99963.48;107694;1256;62569;-83
2023/01/31 01:40:23;;;;;;;;;;;;;;;2.39;81.75;99964.36;107883;1256;125086;-83
2023/01/31 01:42:49;;;;;;;;;;;;;;;2.39;81.81;99965.94;107605;1257;61450;-84
2023/01/31 01:45:15;;;;;;;;;;;;;;;2.40;81.92;99970.83;107593;1254;59799;-83
2023/01/31 01:47:44;;;;;;;;;;;;;;;2.40;81.79;99972.40;107684;1256;124286;-84
2023/01/31 01:50:25;;;;;;;;;;;;;;;2.39;81.67;99974.42;107482;1260;72366;-84
2023/01/31 01:53:04;;;;;;;;;;;;;;;2.36;81.69;99974.30;107587;1254;124749;-84
2023/01/31 01:55:44;;;;;;;;;;;;;;;2.36;81.69;99972.40;108928;1254;60448;-84
2023/01/31 01:58:14;;;;;;;;;;;;;;;2.38;81.79;99978.02;108733;1257;124374;-84
2023/01/31 02:00:40;;;;;;;;;;;;;;;2.40;81.78;99981.90;108591;1262;66650;-84
2023/01/31 02:03:06;;;;;;;;;;;;;;;2.40;81.58;99982.79;108034;1254;59754;-84
2023/01/31 02:05:34;;;;;;;;;;;;;;;2.38;81.45;99989.78;107641;1254;124549;-84
2023/01/31 02:08:01;;;;;;;;;;;;;;;2.37;81.49;99993.91;107769;1256;61578;-84
2023/01/31 02:10:30;;;;;;;;;;;;;;;2.35;81.47;99997.30;107755;1258;124711;-84
2023/01/31 02:12:56;;;;;;;;;;;;;;;2.34;81.50;100006.60;107764;1259;67477;-84
2023/01/31 02:15:25;;;;;;;;;;;;;;;2.35;81.50;100008.36;107311;1254;60436;-83
2023/01/31 02:17:52;;;;;;;;;;;;;;;2.34;81.44;100014.91;107258;1256;125625;-84
2023/01/31 02:20:36;;;;;;;;;;;;;;;2.33;81.48;100027.32;107822;1254;61283;-83
2023/01/31 02:23:11;;;;;;;;;;;;;;;2.35;81.53;100022.92;107523;1257;124392;-84
2023/01/31 02:25:46;;;;;;;;;;;;;;;2.34;81.43;100027.03;107756;1255;65750;-82
2023/01/31 02:28:15;;;;;;;;;;;;;;;2.32;81.36;100032.11;107209;1257;124831;-82
2023/01/31 02:30:41;;;;;;;;;;;;;;;2.31;81.22;100037.64;107514;1257;61596;-84
2023/01/31 02:33:11;;;;;;;;;;;;;;;2.28;81.14;100036.10;107429;1254;61291;-85
2023/01/31 02:35:37;;;;;;;;;;;;;;;2.25;81.17;100040.81;107266;1254;124552;-81
2023/01/31 02:38:07;;;;;;;;;;;;;;;2.23;81.16;100048.15;107772;1254;61343;-85
2023/01/31 02:40:48;;;;;;;;;;;;;;;2.22;81.13;100054.67;107859;1256;125475;-81
2023/01/31 02:43:19;;;;;;;;;;;;;;;2.22;81.27;100063.00;108095;1256;59501;-81
2023/01/31 02:45:49;;;;;;;;;;;;;;;2.23;81.19;100066.67;107701;1254;61149;-81
2023/01/31 02:48:25;;;;;;;;;;;;;;;2.24;81.39;100068.46;107414;1256;127260;-84
2023/01/31 02:50:51;;;;;;;;;;;;;;;2.25;81.15;100067.14;108111;1255;67495;-84
2023/01/31 02:53:23;;;;;;;;;;;;;;;2.26;81.13;100068.36;108818;1254;125049;-84
2023/01/31 02:58:40;;;;;;;;;;;;;;;2.25;81.12;100077.82;108844;1254;125092;-81
2023/01/31 03:01:06;;;;;;;;;;;;;;;2.23;80.94;100082.42;107722;1254;75135;-81
2023/01/31 03:03:34;;;;;;;;;;;;;;;2.22;80.93;100084.29;107445;1254;62172;-84
2023/01/31 03:06:11;;;;;;;;;;;;;;;2.21;80.81;100094.61;107852;1255;123922;-84
2023/01/31 03:08:37;;;;;;;;;;;;;;;2.21;80.89;100099.44;108755;1256;59459;-84
2023/01/31 03:11:04;;;;;;;;;;;;;;;2.20;80.82;100106.70;107626;1254;124483;-84
2023/01/31 03:13:49;;;;;;;;;;;;;;;2.21;80.78;100113.64;107643;1260;75211;-84
2023/01/31 03:19:03;;;;;;;;;;;;;;;2.25;80.82;100119.92;107646;1257;71640;-84
2023/01/31 03:21:37;;;;;;;;;;;;;;;2.24;80.72;100124.86;107705;1256;61144;-84
2023/01/31 03:24:03;;;;;;;;;;;;;;;2.23;80.78;100126.73;107435;1254;125696;-84
2023/01/31 03:26:30;;;;;;;;;;;;;;;2.23;80.65;100131.23;107492;1254;73019;-85
2023/01/31 03:28:57;;;;;;;;;;;;;;;2.22;80.57;100127.91;107484;1257;124440;-84
2023/01/31 03:31:24;;;;;;;;;;;;;;;2.22;80.43;100126.15;108079;1256;72592;-81
2023/01/31 03:33:51;;;;;;;;;;;;;;;2.21;80.41;100130.11;107563;1257;59517;-81
2023/01/31 03:36:27;;;;;;;;;;;;;;;2.23;80.40;100133.84;107592;1254;124651;-85
2023/01/31 03:39:09;;;;;;;;;;;;;;;2.23;80.57;100138.18;107575;1261;73182;-84
2023/01/31 03:41:45;;;;;;;;;;;;;;;2.21;80.37;100138.42;107463;1255;124568;-85
2023/01/31 03:44:18;;;;;;;;;;;;;;;2.20;80.08;100143.05;107440;1254;71268;-85
2023/01/31 03:46:45;;;;;;;;;;;;;;;2.17;80.06;100146.35;107591;1254;125707;-81
2023/01/31 03:49:12;;;;;;;;;;;;;;;2.14;80.13;100156.94;107901;1260;61460;-86
2023/01/31 03:51:40;;;;;;;;;;;;;;;2.11;80.02;100159.25;107393;1261;73351;-81
2023/01/31 03:54:12;;;;;;;;;;;;;;;2.08;79.94;100162.36;107443;1257;124406;-81
2023/01/31 03:56:41;;;;;;;;;;;;;;;2.04;79.92;100160.45;107488;1255;72979;-84
2023/01/31 03:59:13;;;;;;;;;;;;;;;1.99;79.71;100160.17;108630;1254;124997;-85
2023/01/31 04:01:41;;;;;;;;;;;;;;;1.95;79.82;100164.66;107581;1255;61266;-84
2023/01/31 04:04:11;;;;;;;;;;;;;;;1.94;79.97;100161.48;107589;1259;73378;-84
2023/01/31 04:06:38;;;;;;;;;;;;;;;1.92;80.08;100161.73;107218;1257;65991;-86
2023/01/31 04:09:04;;;;;;;;;;;;;;;1.90;80.17;100165.63;107704;1255;59712;-83
2023/01/31 04:11:34;;;;;;;;;;;;;;;1.89;80.19;100168.66;107418;1256;123959;-83
2023/01/31 04:14:00;;;;;;;;;;;;;;;1.88;80.32;100171.95;107426;1256;61128;-80
2023/01/31 04:16:27;;;;;;;;;;;;;;;1.88;80.33;100172.94;107545;1259;124399;-79
2023/01/31 04:18:55;;;;;;;;;;;;;;;1.85;80.28;100176.08;107756;1260;59714;-80
2023/01/31 04:21:21;;;;;;;;;;;;;;;1.81;80.26;100185.55;107852;1255;72725;-80
2023/01/31 04:23:47;;;;;;;;;;;;;;;1.77;80.30;100188.65;107565;1255;124923;-81
2023/01/31 04:26:14;;;;;;;;;;;;;;;1.78;80.47;100197.20;107660;1257;61240;-81
2023/01/31 04:28:40;;;;;;;;;;;;;;;1.81;80.39;100196.62;107766;1255;124873;-84
2023/01/31 04:31:09;;;;;;;;;;;;;;;1.80;80.37;100199.68;108912;1255;66252;-82
2023/01/31 04:33:35;;;;;;;;;;;;;;;1.77;80.26;100204.05;109072;1255;59276;-81
2023/01/31 04:36:02;;;;;;;;;;;;;;;1.75;80.21;100206.91;108232;1256;124330;-81
2023/01/31 04:38:28;;;;;;;;;;;;;;;1.73;80.11;100207.66;107442;1254;61167;-82
2023/01/31 04:40:54;;;;;;;;;;;;;;;1.70;80.09;100215.15;107444;1255;124739;-82
2023/01/31 04:43:20;;;;;;;;;;;;;;;1.68;80.17;100217.06;107623;1257;61368;-80
2023/01/31 04:45:47;;;;;;;;;;;;;;;1.67;80.11;100219.64;107789;1259;61266;-80
2023/01/31 04:48:13;;;;;;;;;;;;;;;1.64;80.21;100225.39;107714;1259;124530;-81
2023/01/31 04:50:40;;;;;;;;;;;;;;;1.62;79.82;100231.30;107612;1257;61304;-85
2023/01/31 04:53:07;;;;;;;;;;;;;;;1.59;79.88;100233.73;107239;1254;124739;-83
2023/01/31 04:55:34;;;;;;;;;;;;;;;1.56;79.95;100238.09;107614;1258;59655;-82
2023/01/31 04:58:00;;;;;;;;;;;;;;;1.57;79.96;100244.86;108047;1254;70412;-82
2023/01/31 05:00:27;;;;;;;;;;;;;;;1.55;79.82;100249.80;108069;1256;124866;-84
2023/01/31 05:02:53;;;;;;;;;;;;;;;1.54;80.02;100247.98;108245;1257;59753;-83
2023/01/31 05:05:19;;;;;;;;;;;;;;;1.52;80.05;100253.65;108177;1257;123838;-83
2023/01/31 05:07:46;;;;;;;;;;;;;;;1.51;79.94;100254.09;108114;1256;61078;-82
2023/01/31 05:10:12;;;;;;;;;;;;;;;1.50;79.93;100253.33;107530;1257;124406;-81
2023/01/31 05:12:38;;;;;;;;;;;;;;;1.48;79.93;100254.42;108084;1256;59414;-80
2023/01/31 05:15:06;;;;;;;;;;;;;;;1.45;79.94;100252.90;108109;1258;59570;-83
2023/01/31 05:17:35;;;;;;;;;;;;;;;1.43;79.89;100252.60;107808;1259;124378;-84
2023/01/31 05:20:01;;;;;;;;;;;;;;;1.38;79.85;100251.64;107829;1256;65657;-81
2023/01/31 05:22:27;;;;;;;;;;;;;;;1.35;80.00;100251.32;107928;1257;124476;-82
2023/01/31 05:24:53;;;;;;;;;;;;;;;1.33;79.83;100249.47;108084;1257;59791;-82
2023/01/31 05:27:20;;;;;;;;;;;;;;;1.31;79.94;100253.36;108217;1254;59967;-83
2023/01/31 05:29:46;;;;;;;;;;;;;;;1.28;79.95;100255.59;107863;1257;125744;-83
2023/01/31 05:32:13;;;;;;;;;;;;;;;1.25;80.07;100253.71;107987;1256;59807;-84
2023/01/31 05:34:39;;;;;;;;;;;;;;;1.23;80.04;100257.05;107756;1257;125262;-82
2023/01/31 05:37:06;;;;;;;;;;;;;;;1.19;80.09;100264.79;107846;1255;61468;-79
2023/01/31 05:39:32;;;;;;;;;;;;;;;1.18;80.32;100272.50;107705;1257;61202;-83
2023/01/31 05:41:58;;;;;;;;;;;;;;;1.21;80.51;100281.68;107522;1254;124841;-81
2023/01/31 05:44:25;;;;;;;;;;;;;;;1.30;80.72;100280.11;107461;1257;61279;-81
2023/01/31 05:46:51;;;;;;;;;;;;;;;1.39;81.07;100285.25;107426;1257;125197;-81
2023/01/31 05:49:18;;;;;;;;;;;;;;;1.44;80.87;100288.27;107807;1258;61296;-82
2023/01/31 05:51:44;;;;;;;;;;;;;;;1.50;81.16;100293.61;107894;1256;59366;-81
2023/01/31 05:54:10;;;;;;;;;;;;;;;1.56;81.19;100296.53;107757;1257;124922;-82
2023/01/31 05:56:38;;;;;;;;;;;;;;;1.63;81.24;100295.35;107646;1254;59680;-84
2023/01/31 05:59:04;;;;;;;;;;;;;;;1.69;81.18;100303.78;107477;1257;124598;-81
2023/01/31 06:01:30;;;;;;;;;;;;;;;1.70;80.96;100309.77;107703;1258;59553;-80
2023/01/31 06:03:57;;;;;;;;;;;;;;;1.72;80.93;100317.45;107763;1257;59603;-79
2023/01/31 06:06:23;;;;;;;;;;;;;;;1.77;80.93;100323.58;107679;1256;124835;-83
2023/01/31 06:08:49;;;;;;;;;;;;;;;1.81;81.02;100328.65;107827;1257;61538;-82
2023/01/31 06:11:17;;;;;;;;;;;;;;;1.81;80.96;100338.52;108518;1260;124623;-82
2023/01/31 06:13:43;;;;;;;;;;;;;;;1.83;80.91;100347.96;109025;1255;59608;-82
2023/01/31 06:16:10;;;;;;;;;;;;;;;1.90;80.89;100350.06;108548;1256;59918;-82
2023/01/31 06:18:36;;;;;;;;;;;;;;;1.93;80.71;100354.04;107504;1257;61133;-80
2023/01/31 06:21:02;;;;;;;;;;;;;;;1.95;80.46;100364.33;107599;1257;61212;-80
2023/01/31 06:23:29;;;;;;;;;;;;;;;1.96;80.77;100370.29;107481;1257;124479;-79
2023/01/31 06:25:55;;;;;;;;;;;;;;;2.01;80.77;100372.98;107606;1255;61278;-80
2023/01/31 06:28:22;;;;;;;;;;;;;;;2.08;80.57;100382.55;107517;1262;124690;-79
2023/01/31 06:30:48;;;;;;;;;;;;;;;2.12;80.50;100383.46;108010;1258;61202;-79
2023/01/31 06:33:14;;;;;;;;;;;;;;;2.13;80.29;100387.98;107888;1256;61069;-81
2023/01/31 06:35:41;;;;;;;;;;;;;;;2.10;80.22;100398.36;108537;1256;125107;-81
2023/01/31 06:38:07;;;;;;;;;;;;;;;2.08;80.17;100401.20;108824;1262;59189;-81
2023/01/31 06:40:35;;;;;;;;;;;;;;;2.07;80.12;100407.70;108727;1254;124858;-81
2023/01/31 06:43:01;;;;;;;;;;;;;;;2.06;80.04;100401.28;108926;1257;59495;-81
2023/01/31 06:45:28;;;;;;;;;;;;;;;2.06;80.25;100404.58;108955;1253;59407;-80
2023/01/31 06:47:54;;;;;;;;;;;;;;;2.06;80.06;100408.39;108192;1254;125425;-79
2023/01/31 06:50:20;;;;;;;;;;;;;;;2.08;80.28;100410.91;107851;1257;61308;-79
2023/01/31 06:52:46;;;;;;;;;;;;;;;2.08;80.09;100415.78;107492;1257;124633;-81
2023/01/31 06:55:13;;;;;;;;;;;;;;;2.09;80.10;100420.98;107672;1254;61176;-80
2023/01/31 06:57:48;;;;;;;;;;;;;;;2.10;80.03;100422.44;107941;1258;61170;-82
2023/01/31 07:00:14;;;;;;;;;;;;;;;2.14;80.11;100420.04;107742;1254;124864;-80
2023/01/31 07:02:41;;;;;;;;;;;;;;;2.17;79.85;100421.90;108129;1254;59533;-82
2023/01/31 07:05:07;;;;;;;;;;;;;;;2.17;79.93;100419.98;108061;1257;125147;-82
2023/01/31 07:07:34;;;;;;;;;;;;;;;2.17;79.95;100425.56;107651;1257;61203;-82
2023/01/31 07:10:00;;;;;;;;;;;;;;;2.18;79.88;100425.42;107702;1256;61367;-82
2023/01/31 07:12:26;;;;;;;;;;;;;;;2.18;79.86;100426.82;107706;1256;125179;-82
2023/01/31 07:14:53;;;;;;;;;;;;;;;2.19;79.83;100429.50;107532;1256;61346;-82
2023/01/31 07:17:22;;;;;;;;;;;;;;;2.21;79.80;100435.83;107489;1254;125254;-82
2023/01/31 07:19:48;;;;;;;;;;;;;;;2.24;79.64;100435.45;107737;1254;73882;-82
2023/01/31 07:22:14;;;;;;;;;;;;;;;2.26;79.60;100439.18;107660;1257;124158;-82
2023/01/31 07:24:41;;;;;;;;;;;;;;;2.28;79.67;100440.54;108799;1259;60196;-82
2023/01/31 07:27:07;;;;;;;;;;;;;;;2.30;79.59;100437.67;107958;1259;61122;-82
2023/01/31 07:29:33;;;;;;;;;;;;;;;2.30;79.57;100439.96;107836;1255;125271;-82
2023/01/31 07:32:00;;;;;;;;;;;;;;;2.32;79.64;100441.46;108105;1257;59706;-82
2023/01/31 07:34:26;;;;;;;;;;;;;;;2.35;79.49;100441.74;108018;1259;125514;-81
2023/01/31 07:36:53;;;;;;;;;;;;;;;2.38;79.42;100443.45;107912;1255;61349;-82
2023/01/31 07:39:19;;;;;;;;;;;;;;;2.41;79.37;100439.98;108050;1259;59608;-80
2023/01/31 07:41:45;;;;;;;;;;;;;;;2.45;79.36;100444.52;107783;1257;125888;-81
2023/01/31 07:44:12;;;;;;;;;;;;;;;2.49;79.39;100448.23;108082;1256;62802;-82
2023/01/31 07:46:41;;;;;;;;;;;;;;;2.54;79.39;100450.22;108036;1254;125052;-80
2023/01/31 07:49:10;;;;;;;;;;;;;;;2.59;79.40;100448.91;108116;1259;73238;-80
2023/01/31 07:51:37;;;;;;;;;;;;;;;2.65;79.21;100453.02;107763;1256;61325;-79
2023/01/31 07:54:04;;;;;;;;;;;;;;;2.72;79.12;100457.34;107538;1257;124758;-79
2023/01/31 07:56:31;;;;;;;;;;;;;;;2.79;79.03;100462.20;108285;1256;74604;-79
2023/01/31 07:58:58;;;;;;;;;;;;;;;2.86;79.04;100464.98;108670;1257;124995;-79
2023/01/31 08:04:10;;;;;;;;;;;;;;;3.04;78.74;100464.53;108456;1259;59269;-79
2023/01/31 08:06:37;;;;;;;;;;;;;;;3.13;78.68;100475.91;107696;1259;59946;-79
2023/01/31 08:09:04;;;;;;;;;;;;;;;3.23;78.54;100482.30;107756;1259;73120;-79
2023/01/31 08:11:30;;;;;;;;;;;;;;;3.33;78.41;100483.31;107802;1259;124167;-79
2023/01/31 08:13:57;;;;;;;;;;;;;;;3.43;78.39;100485.89;107929;1256;59653;-81
2023/01/31 08:16:23;;;;;;;;;;;;;;;3.53;78.15;100489.34;107695;1257;125360;-81
2023/01/31 08:18:50;;;;;;;;;;;;;;;3.63;77.98;100490.86;108113;1254;61438;-81
2023/01/31 08:21:17;;;;;;;;;;;;;;;3.71;77.83;100486.39;107884;1255;75010;-81
2023/01/31 08:23:43;;;;;;;;;;;;;;;3.80;77.73;100490.61;108868;1257;124391;-82
2023/01/31 08:26:14;;;;;;;;;;;;;;;3.87;77.52;100488.70;107460;1257;61109;-81
2023/01/31 08:28:41;;;;;;;;;;;;;;;3.93;77.47;100491.22;107435;1256;124741;-81
2023/01/31 08:31:10;;;;;;;;;;;;;;;3.95;77.25;100487.36;107754;1259;62563;-81
2023/01/31 08:33:37;;;;;;;;;;;;;;;3.92;76.92;100489.13;107650;1254;73814;-78
2023/01/31 08:36:08;;;;;;;;;;;;;;;3.89;76.69;100492.77;108674;1260;124665;-79
2023/01/31 08:38:34;;;;;;;;;;;;;;;3.85;76.71;100490.19;109061;1257;73082;-79
2023/01/31 08:41:00;;;;;;;;;;;;;;;3.82;76.68;100493.02;108439;1259;123370;-82
2023/01/31 08:43:27;;;;;;;;;;;;;;;3.79;76.50;100494.73;108139;1257;61279;-79
2023/01/31 08:45:54;;;;;;;;;;;;;;;3.79;76.53;100500.82;107638;1256;61435;-79
2023/01/31 08:48:20;;;;;;;;;;;;;;;3.82;76.48;100500.63;107768;1256;124143;-79
2023/01/31 08:50:46;;;;;;;;;;;;;;;3.90;76.54;100506.38;107996;1256;60050;-79
2023/01/31 08:53:13;;;;;;;;;;;;;;;4.00;76.56;100504.61;107874;1257;124484;-79
2023/01/31 08:55:39;;;;;;;;;;;;;;;4.16;76.43;100504.68;108053;1259;59532;-80
2023/01/31 08:58:07;;;;;;;;;;;;;;;4.34;76.47;100509.66;107994;1259;73226;-82
2023/01/31 09:00:34;;;;;;;;;;;;;;;4.52;76.30;100509.11;107587;1259;124888;-80
2023/01/31 09:03:01;;;;;;;;;;;;;;;4.66;76.18;100509.20;107595;1259;72578;-80
2023/01/31 09:05:28;;;;;;;;;;;;;;;4.78;75.91;100510.10;107474;1253;124585;-80
2023/01/31 09:07:54;;;;;;;;;;;;;;;4.84;75.36;100513.31;107637;1257;60429;-79
2023/01/31 09:10:21;;;;;;;;;;;;;;;4.85;74.86;100519.09;107782;1257;124016;-80
2023/01/31 09:12:47;;;;;;;;;;;;;;;4.86;74.97;100519.65;107825;1259;61130;-80
2023/01/31 09:15:14;;;;;;;;;;;;;;;4.92;74.73;100521.13;107975;1259;61367;-82
2023/01/31 09:17:41;;;;;;;;;;;;;;;4.94;74.60;100522.63;107615;1259;124572;-82
2023/01/31 09:20:09;;;;;;;;;;;;;;;4.97;74.43;100524.63;107809;1257;61241;-81
2023/01/31 09:22:35;;;;;;;;;;;;;;;4.97;74.36;100526.22;107554;1255;124898;-81
2023/01/31 09:25:02;;;;;;;;;;;;;;;4.95;74.24;100527.00;107868;1262;67383;-80
2023/01/31 09:27:29;;;;;;;;;;;;;;;4.91;73.87;100536.36;108047;1257;73300;-79
2023/01/31 09:29:55;;;;;;;;;;;;;;;4.83;73.60;100540.02;107353;1262;124998;-80
2023/01/31 09:32:21;;;;;;;;;;;;;;;4.79;73.65;100539.67;107492;1257;61179;-81
2023/01/31 09:34:48;;;;;;;;;;;;;;;4.78;73.72;100542.42;107643;1260;124872;-81
2023/01/31 09:37:18;;;;;;;;;;;;;;;4.76;73.66;100544.58;107924;1254;67670;-81
2023/01/31 09:39:44;;;;;;;;;;;;;;;4.68;73.23;100540.76;108960;1257;72721;-81
2023/01/31 09:42:19;;;;;;;;;;;;;;;4.63;73.27;100540.86;108530;1256;124393;-82
2023/01/31 09:45:13;;;;;;;;;;;;;;;4.62;73.33;100542.91;107781;1257;59598;-84
2023/01/31 09:47:44;;;;;;;;;;;;;;;4.63;73.21;100540.00;105047;1264;2447907;-81
2023/01/31 09:50:20;;;;;;;;;;;;;;;4.68;73.24;100539.55;107224;1263;65653;-81
2023/01/31 09:52:48;;;;;;;;;;;;;;;4.78;73.28;100536.48;107252;1264;124777;-83
2023/01/31 09:55:19;;;;;;;;;;;;;;;4.88;73.25;100535.73;108374;1262;59592;-83
2023/01/31 09:57:55;;;;;;;;;;;;;;;4.97;72.90;100533.34;107896;1263;60664;-83
2023/01/31 10:00:27;;;;;;;;;;;;;;;5.04;72.90;100539.21;107034;1269;124242;-80
2023/01/31 10:03:13;;;;;;;;;;;;;;;5.11;72.61;100537.61;107072;1268;67053;-82
2023/01/31 10:05:41;;;;;;;;;;;;;;;5.17;72.37;100539.77;108276;1266;125111;-80
2023/01/31 10:08:19;;;;;;;;;;;;;;;5.21;71.89;100537.67;107841;1267;59462;-82
2023/01/31 10:10:53;;;;;;;;;;;;;;;5.26;71.98;100537.05;107121;1263;124464;-81
2023/01/31 10:13:23;;;;;;;;;;;;;;;5.37;72.11;100538.55;107175;1268;75121;-83
2023/01/31 10:15:57;;;;;;;;;;;;;;;5.47;71.93;100539.81;107176;1267;65675;-82
2023/01/31 10:18:33;;;;;;;;;;;;;;;5.53;71.59;100539.58;107010;1268;124367;-83
2023/01/31 10:21:07;;;;;;;;;;;;;;;5.56;71.27;100535.00;107076;1268;61443;-83
2023/01/31 10:23:53;;;;;;;;;;;;;;;5.54;71.08;100539.27;106892;1264;123908;-81
2023/01/31 10:26:25;;;;;;;;;;;;;;;5.49;70.79;100541.29;108139;1257;73271;-81
2023/01/31 10:29:27;;;;;;;;;;;;;;;5.37;70.37;100539.92;107656;1257;124802;-80
2023/01/31 10:31:56;;;;;;;;;;;;;;;5.26;70.46;100542.08;107617;1264;72639;-80
2023/01/31 10:34:26;;;;;;;;;;;;;;;5.18;70.59;100545.04;107516;1263;124566;-82
2023/01/31 10:36:59;;;;;;;;;;;;;;;5.14;70.42;100542.60;107319;1264;60110;-83
2023/01/31 10:40:03;;;;;;;;;;;;;;;5.14;70.63;100541.54;107152;1266;74733;-82
2023/01/31 10:42:36;;;;;;;;;;;;;;;5.20;70.53;100535.37;107299;1268;123990;-82
2023/01/31 10:45:11;;;;;;;;;;;;;;;5.25;70.38;100529.52;107237;1268;73051;-82
2023/01/31 10:47:43;;;;;;;;;;;;;;;5.32;70.41;100520.05;106815;1271;123871;-81
2023/01/31 10:50:17;;;;;;;;;;;;;;;5.40;70.42;100518.84;106949;1269;61220;-81
2023/01/31 10:52:46;;;;;;;;;;;;;;;5.48;70.23;100511.50;106982;1268;124798;-83
2023/01/31 10:55:12;;;;;;;;;;;;;;;5.55;69.89;100507.81;107101;1272;65582;-81
2023/01/31 10:57:38;;;;;;;;;;;;;;;5.59;69.15;100506.56;107039;1271;61224;-83
2023/01/31 11:00:06;;;;;;;;;;;;;;;5.57;69.14;100496.56;106945;1269;123946;-83
2023/01/31 11:02:32;;;;;;;;;;;;;;;5.62;69.28;100487.70;107412;1267;61363;-81
2023/01/31 11:04:59;;;;;;;;;;;;;;;5.63;68.96;100485.16;108077;1267;124067;-81
2023/01/31 11:07:30;;;;;;;;;;;;;;;5.63;68.80;100486.04;108253;1271;67127;-83
2023/01/31 11:09:57;;;;;;;;;;;;;;;5.62;68.58;100482.84;108493;1263;71389;-82
2023/01/31 11:12:43;;;;;;;;;;;;;;;5.64;68.70;100482.60;108271;1261;124550;-81
2023/01/31 11:15:14;;;;;;;;;;;;;;;5.76;68.84;100481.48;108835;1258;59481;-81
2023/01/31 11:17:40;;;;;;;;;;;;;;;5.88;68.81;100478.64;108672;1261;124425;-81
2023/01/31 11:20:09;;;;;;;;;;;;;;;5.94;68.51;100475.23;108978;1259;59386;-81
2023/01/31 11:22:36;;;;;;;;;;;;;;;5.94;68.47;100469.31;108702;1255;125239;-81
2023/01/31 11:25:05;;;;;;;;;;;;;;;5.96;68.30;100466.45;109005;1254;59337;-82
2023/01/31 11:27:35;;;;;;;;;;;;;;;5.96;68.34;100465.23;108803;1261;59446;-82
2023/01/31 11:30:03;;;;;;;;;;;;;;;5.93;67.88;100466.80;108794;1257;124455;-81
2023/01/31 11:32:30;;;;;;;;;;;;;;;5.85;67.93;100466.71;108803;1256;67176;-80
2023/01/31 11:35:04;;;;;;;;;;;;;;;5.83;67.94;100462.42;108789;1254;123970;-81
2023/01/31 11:37:30;;;;;;;;;;;;;;;5.81;67.92;100457.14;108826;1257;59255;-82
2023/01/31 11:39:57;;;;;;;;;;;;;;;5.84;68.10;100448.21;108841;1254;59830;-83
2023/01/31 11:42:24;;;;;;;;;;;;;;;5.92;68.15;100446.59;108686;1257;124154;-83
2023/01/31 11:44:54;;;;;;;;;;;;;;;5.95;68.02;100445.65;108817;1257;59383;-83
2023/01/31 11:47:24;;;;;;;;;;;;;;;5.96;67.80;100442.78;108849;1254;123991;-81
2023/01/31 11:49:50;;;;;;;;;;;;;;;5.98;67.68;100437.27;108910;1254;59184;-81
2023/01/31 11:52:17;;;;;;;;;;;;;;;5.99;67.58;100432.64;108908;1257;123982;-82
2023/01/31 11:54:47;;;;;;;;;;;;;;;6.00;67.34;100425.00;108833;1256;75702;-81
2023/01/31 11:57:19;;;;;;;;;;;;;;;5.99;66.74;100423.55;108825;1254;65800;-83
2023/01/31 11:59:45;;;;;;;;;;;;;;;5.98;66.81;100424.03;108677;1257;124344;-83
2023/01/31 12:02:31;;;;;;;;;;;;;;;6.00;66.77;100421.32;108788;1254;59524;-81
2023/01/31 12:04:57;;;;;;;;;;;;;;;6.01;66.61;100415.12;108708;1260;124057;-83
2023/01/31 12:07:25;;;;;;;;;;;;;;;6.02;66.46;100411.30;108875;1254;59285;-83
2023/01/31 12:09:51;;;;;;;;;;;;;;;6.04;66.30;100408.74;108877;1260;66318;-83
2023/01/31 12:12:22;;;;;;;;;;;;;;;6.03;66.06;100409.08;108901;1254;123726;-81
2023/01/31 12:14:49;;;;;;;;;;;;;;;6.01;65.85;100413.19;108848;1260;59230;-81
2023/01/31 12:17:15;;;;;;;;;;;;;;;6.00;65.81;100407.39;108872;1258;123845;-81
2023/01/31 12:19:54;;;;;;;;;;;;;;;5.98;65.70;100408.36;108979;1257;60784;-81
2023/01/31 12:22:25;;;;;;;;;;;;;;;5.95;65.59;100406.34;108888;1254;123864;-81
2023/01/31 12:24:58;;;;;;;;;;;;;;;5.93;65.58;100402.39;108895;1260;72717;-81
2023/01/31 12:27:31;;;;;;;;;;;;;;;5.88;65.32;100394.71;109029;1254;59358;-80
2023/01/31 12:30:19;;;;;;;;;;;;;;;5.81;65.23;100393.42;108730;1257;124567;-83
2023/01/31 12:32:58;;;;;;;;;;;;;;;5.75;65.41;100385.85;108837;1254;74532;-81
2023/01/31 12:35:24;;;;;;;;;;;;;;;5.69;65.55;100385.08;108973;1258;123806;-80
2023/01/31 12:37:53;;;;;;;;;;;;;;;5.63;65.43;100384.00;109047;1257;59765;-81
2023/01/31 12:40:28;;;;;;;;;;;;;;;5.58;65.55;100382.42;108884;1255;123896;-81
2023/01/31 12:42:59;;;;;;;;;;;;;;;5.55;65.62;100379.15;108861;1257;59484;-80
2023/01/31 12:45:25;;;;;;;;;;;;;;;5.51;65.57;100380.23;108807;1254;75039;-83
2023/01/31 12:48:06;;;;;;;;;;;;;;;5.48;65.50;100377.50;108877;1257;123840;-82
2023/01/31 12:50:44;;;;;;;;;;;;;;;5.45;65.40;100369.73;108732;1254;72688;-83
2023/01/31 12:53:24;;;;;;;;;;;;;;;5.44;65.62;100368.64;108881;1254;124366;-81